createdAt,value
2023-01-04T09:02:38.659Z,17.50
2023-01-04T09:08:15.652Z,32.58
2023-01-04T09:10:44.548Z,18.42
2023-01-04T09:13:13.385Z,19.42
2023-01-04T09:15:42.427Z,20.38
2023-01-04T09:18:33.050Z,19.60
2023-01-04T09:21:08.546Z,23.38
2023-01-04T09:23:37.567Z,17.83
2023-01-04T09:26:10.942Z,21.67
2023-01-04T09:28:40.113Z,20.10
2023-01-04T09:31:09.245Z,20.10
2023-01-04T09:34:12.204Z,20.20
2023-01-04T09:36:27.517Z,16.60
2023-01-04T09:38:56.923Z,21.10
2023-01-04T09:41:28.381Z,15.65
2023-01-04T09:43:59.612Z,21.90
2023-01-04T09:46:34.110Z,14.48
2023-01-04T09:49:15.722Z,15.77
2023-01-04T09:51:54.559Z,15.68
2023-01-04T09:54:25.683Z,14.45
2023-01-04T09:56:58.414Z,15.00
2023-01-04T09:59:32.110Z,15.45
2023-01-04T10:02:05.369Z,11.77
2023-01-04T10:04:45.545Z,15.02
2023-01-04T10:07:22.817Z,16.58
2023-01-04T10:09:51.243Z,16.40
2023-01-04T10:12:34.769Z,14.60
2023-01-04T10:15:17.770Z,13.73
2023-01-04T10:21:30.002Z,14.27
2023-01-04T10:24:34.178Z,14.50
2023-01-04T10:27:09.099Z,13.00
2023-01-04T10:30:01.849Z,12.50
2023-01-04T10:32:41.789Z,13.38
2023-01-04T10:35:21.662Z,11.80
2023-01-04T10:37:55.488Z,13.23
2023-01-04T10:40:23.889Z,12.90
2023-01-04T10:43:01.919Z,13.02
2023-01-04T10:45:38.713Z,16.95
2023-01-04T10:48:14.082Z,17.40
2023-01-04T10:50:49.745Z,11.98
2023-01-04T10:53:23.580Z,13.75
2023-01-04T10:56:26.502Z,11.50
2023-01-04T10:58:51.247Z,13.15
2023-01-04T11:01:23.813Z,10.98
2023-01-04T11:03:57.035Z,14.88
2023-01-04T11:06:28.852Z,12.27
2023-01-04T11:09:05.930Z,9.65
2023-01-04T11:11:39.708Z,13.80
2023-01-04T11:14:08.389Z,14.48
2023-01-04T11:16:38.001Z,11.52
2023-01-04T11:19:08.850Z,12.13
2023-01-04T11:21:43.807Z,10.68
2023-01-04T11:24:31.463Z,9.25
2023-01-04T11:27:07.619Z,9.60
2023-01-04T11:29:41.818Z,11.98
2023-01-04T11:32:18.313Z,12.57
2023-01-04T11:34:53.603Z,13.60
2023-01-04T11:37:33.532Z,10.55
2023-01-04T11:40:21.956Z,18.55
2023-01-04T11:42:52.652Z,18.50
2023-01-04T11:45:25.304Z,20.88
2023-01-04T11:47:55.988Z,16.73
2023-01-04T11:50:42.615Z,13.60
2023-01-04T11:53:39.601Z,12.45
2023-01-04T11:56:21.772Z,8.35
2023-01-04T11:59:20.652Z,7.75
2023-01-04T12:02:11.338Z,10.48
2023-01-04T12:04:39.868Z,8.82
2023-01-04T12:07:18.379Z,18.73
2023-01-04T12:09:46.787Z,16.23
2023-01-04T12:12:16.532Z,8.43
2023-01-04T12:14:50.027Z,10.00
2023-01-04T12:17:24.394Z,11.40
2023-01-04T12:19:55.127Z,11.75
2023-01-04T12:22:32.546Z,10.77
2023-01-04T12:25:02.656Z,11.32
2023-01-04T12:27:32.593Z,11.05
2023-01-04T12:30:02.229Z,9.73
2023-01-04T12:32:54.758Z,11.07
2023-01-04T12:36:04.027Z,8.45
2023-01-04T12:38:59.557Z,13.02
2023-01-04T12:42:18.006Z,8.45
2023-01-04T12:45:19.270Z,9.95
2023-01-04T12:48:06.769Z,10.02
2023-01-04T12:51:37.418Z,8.73
2023-01-04T12:54:34.186Z,8.32
2023-01-04T12:57:33.522Z,10.80
2023-01-04T13:00:08.545Z,9.73
2023-01-04T13:02:44.130Z,10.75
2023-01-04T13:05:55.447Z,12.80
2023-01-04T13:08:42.221Z,9.20
2023-01-04T13:11:37.858Z,9.85
2023-01-04T13:14:13.745Z,10.50
2023-01-04T13:16:50.752Z,8.15
2023-01-04T13:19:25.209Z,8.63
2023-01-04T13:21:58.161Z,8.00
2023-01-04T13:24:31.499Z,7.80
2023-01-04T13:27:09.309Z,11.50
2023-01-04T13:30:01.994Z,8.70
2023-01-04T13:33:28.575Z,9.77
2023-01-04T13:36:13.652Z,8.60
2023-01-04T13:38:42.919Z,12.18
2023-01-04T13:41:22.266Z,7.90
2023-01-04T13:44:11.390Z,6.60
2023-01-04T13:47:01.209Z,10.75
2023-01-04T13:49:51.405Z,9.30
2023-01-04T13:52:50.491Z,8.70
2023-01-04T13:55:25.729Z,9.35
2023-01-04T13:58:02.771Z,11.20
2023-01-04T14:00:42.464Z,11.38
2023-01-04T14:10:59.633Z,13.32
2023-01-04T14:13:31.581Z,10.88
2023-01-04T14:16:21.116Z,11.52
2023-01-04T14:19:59.935Z,9.10
2023-01-04T14:26:12.757Z,9.45
2023-01-04T14:29:42.944Z,10.13
2023-01-04T14:35:36.053Z,8.90
2023-01-04T14:50:21.930Z,9.13
2023-01-04T14:54:00.024Z,10.45
2023-01-04T14:56:36.238Z,10.38
2023-01-04T14:59:14.812Z,11.73
2023-01-04T15:01:45.586Z,9.43
2023-01-04T15:04:20.284Z,9.52
2023-01-04T15:06:51.257Z,14.27
2023-01-04T15:09:19.659Z,8.40
2023-01-04T15:11:56.006Z,8.93
2023-01-04T15:14:25.017Z,8.90
2023-01-04T15:16:53.653Z,8.57
2023-01-04T15:19:22.307Z,7.95
2023-01-04T15:21:54.355Z,5.88
2023-01-04T15:24:26.048Z,8.98
2023-01-04T15:26:56.462Z,6.30
2023-01-04T15:29:25.362Z,7.35
2023-01-04T15:31:54.125Z,8.20
2023-01-04T15:34:31.757Z,8.68
2023-01-04T15:37:03.242Z,6.03
2023-01-04T15:39:31.756Z,8.10
2023-01-04T15:42:19.697Z,7.18
2023-01-04T15:44:51.499Z,36.83
2023-01-04T15:47:23.191Z,7.97
2023-01-04T15:49:51.836Z,12.90
2023-01-04T15:52:33.139Z,9.25
2023-01-04T15:55:05.044Z,21.38
2023-01-04T15:57:41.669Z,23.92
2023-01-04T16:00:18.141Z,9.15
2023-01-04T16:02:46.625Z,6.72
2023-01-04T16:05:16.333Z,12.00
2023-01-04T16:07:48.277Z,8.35
2023-01-04T16:10:17.826Z,11.10
2023-01-04T16:12:54.778Z,12.40
2023-01-04T16:15:30.173Z,11.43
2023-01-04T16:18:04.163Z,14.23
2023-01-04T16:20:35.838Z,7.00
2023-01-04T16:23:04.550Z,7.03
2023-01-04T16:25:33.512Z,7.13
2023-01-04T16:28:09.592Z,11.18
2023-01-04T16:30:38.199Z,8.85
2023-01-04T16:33:09.858Z,6.30
2023-01-04T16:35:41.446Z,8.55
2023-01-04T16:38:16.670Z,6.07
2023-01-04T16:41:05.015Z,9.15
2023-01-04T16:43:48.198Z,6.82
2023-01-04T16:46:31.908Z,8.85
2023-01-04T16:49:03.042Z,7.40
2023-01-04T16:52:14.891Z,5.20
2023-01-04T16:55:04.858Z,7.90
2023-01-04T16:57:42.429Z,5.72
2023-01-04T17:00:14.658Z,5.20
2023-01-04T17:02:49.746Z,5.90
2023-01-04T17:05:19.202Z,8.10
2023-01-04T17:10:39.580Z,11.75
2023-01-04T17:13:11.091Z,8.68
2023-01-04T17:15:43.419Z,6.25
2023-01-04T17:18:31.257Z,12.38
2023-01-04T17:21:33.037Z,6.30
2023-01-04T17:24:09.746Z,5.53
2023-01-04T17:26:49.036Z,7.47
2023-01-04T17:29:21.068Z,6.70
2023-01-04T17:31:51.845Z,8.52
2023-01-04T17:34:23.199Z,10.95
2023-01-04T17:36:52.141Z,6.38
2023-01-04T17:39:21.960Z,4.00
2023-01-04T17:41:51.200Z,21.35
2023-01-04T17:44:19.653Z,5.28
2023-01-04T17:46:50.542Z,15.90
2023-01-04T17:49:25.330Z,6.65
2023-01-04T17:51:57.330Z,6.55
2023-01-04T17:54:27.094Z,9.40
2023-01-04T17:56:58.606Z,8.75
2023-01-04T17:59:27.080Z,7.82
2023-01-04T18:01:55.744Z,7.35
2023-01-04T18:04:25.735Z,4.15
2023-01-04T18:06:54.484Z,8.30
2023-01-04T18:09:25.031Z,5.55
2023-01-04T18:11:53.375Z,5.65
2023-01-04T18:14:22.485Z,7.65
2023-01-04T18:16:57.910Z,5.00
2023-01-04T18:19:30.404Z,8.07
2023-01-04T18:21:59.841Z,9.95
2023-01-04T18:24:37.395Z,8.18
2023-01-04T18:27:24.548Z,7.22
2023-01-04T18:29:54.900Z,6.38
2023-01-04T18:32:24.025Z,10.38
2023-01-04T18:34:54.000Z,6.60
2023-01-04T18:37:28.802Z,8.98
2023-01-04T18:40:03.974Z,4.85
2023-01-04T18:42:38.440Z,7.57
2023-01-04T18:45:08.175Z,10.25
2023-01-04T18:47:47.675Z,8.55
2023-01-04T18:50:21.535Z,9.13
2023-01-04T18:52:49.908Z,11.63
2023-01-04T18:55:27.513Z,18.90
2023-01-04T18:57:55.925Z,18.15
2023-01-04T19:00:29.900Z,16.52
2023-01-04T19:02:59.050Z,15.05
2023-01-04T19:05:31.546Z,8.02
2023-01-04T19:07:59.832Z,9.20
2023-01-04T19:10:28.214Z,6.65
2023-01-04T19:12:56.789Z,10.20
2023-01-04T19:15:25.764Z,8.40
2023-01-04T19:17:54.311Z,10.07
2023-01-04T19:20:25.930Z,10.30
2023-01-04T19:22:56.353Z,6.93
2023-01-04T19:25:28.516Z,9.93
2023-01-04T19:27:57.199Z,8.70
2023-01-04T19:30:25.794Z,8.57
2023-01-04T19:32:56.902Z,17.00
2023-01-04T19:35:26.003Z,17.10
2023-01-04T19:37:56.254Z,10.45
2023-01-04T19:40:24.878Z,11.73
2023-01-04T19:42:53.464Z,10.23
2023-01-04T19:45:24.680Z,11.40
2023-01-04T19:47:52.985Z,10.10
2023-01-04T19:50:21.796Z,9.35
2023-01-04T19:52:50.249Z,7.03
2023-01-04T19:55:20.268Z,6.13
2023-01-04T19:57:51.691Z,6.30
2023-01-04T20:00:20.459Z,7.72
2023-01-04T20:02:49.582Z,8.25
2023-01-04T20:05:18.261Z,6.38
2023-01-04T20:07:48.667Z,8.70
2023-01-04T20:10:17.023Z,7.30
2023-01-04T20:12:46.938Z,5.30
2023-01-04T20:15:15.420Z,5.97
2023-01-04T20:17:43.847Z,5.53
2023-01-04T20:20:12.346Z,6.93
2023-01-04T20:22:40.585Z,13.60
2023-01-04T20:25:09.616Z,11.10
2023-01-04T20:27:37.989Z,9.40
2023-01-04T20:30:09.310Z,11.15
2023-01-04T20:32:37.983Z,9.25
2023-01-04T20:35:06.762Z,7.78
2023-01-04T20:37:35.289Z,6.53
2023-01-04T20:40:03.890Z,7.05
2023-01-04T20:42:46.020Z,4.95
2023-01-04T20:45:15.716Z,5.95
2023-01-04T20:47:44.045Z,5.18
2023-01-04T20:50:13.660Z,5.20
2023-01-04T20:52:42.018Z,4.75
2023-01-04T20:55:17.384Z,8.75
2023-01-04T20:57:46.065Z,4.55
2023-01-04T21:00:18.458Z,5.85
2023-01-04T21:02:50.244Z,4.60
2023-01-04T21:05:19.883Z,5.45
2023-01-04T21:07:48.378Z,4.90
2023-01-04T21:10:18.570Z,7.05
2023-01-04T21:12:47.622Z,7.25
2023-01-04T21:15:17.922Z,4.10
2023-01-04T21:17:47.818Z,3.35
2023-01-04T21:20:16.252Z,11.75
2023-01-04T21:22:44.596Z,4.95
2023-01-04T21:25:12.937Z,6.53
2023-01-04T21:27:41.189Z,6.15
2023-01-04T21:30:10.525Z,3.88
2023-01-04T21:32:40.368Z,7.28
2023-01-04T21:35:09.828Z,3.70
2023-01-04T21:37:38.097Z,5.93
2023-01-04T21:40:07.476Z,5.05
2023-01-04T21:42:39.385Z,5.57
2023-01-04T21:45:08.922Z,4.55
2023-01-04T21:47:37.989Z,5.43
2023-01-04T21:50:14.899Z,4.63
2023-01-04T21:52:45.442Z,4.30
2023-01-04T21:55:13.765Z,5.20
2023-01-04T21:57:42.050Z,6.07
2023-01-04T22:00:12.719Z,3.80
2023-01-04T22:02:42.968Z,4.55
2023-01-04T22:05:12.895Z,4.90
2023-01-04T22:07:41.120Z,4.28
2023-01-04T22:10:10.112Z,3.45
2023-01-04T22:12:38.612Z,2.17
2023-01-04T22:15:08.107Z,2.05
2023-01-04T22:17:36.480Z,12.80
2023-01-04T22:20:04.997Z,20.88
2023-01-04T22:22:34.703Z,4.22
2023-01-04T22:25:02.992Z,2.40
2023-01-04T22:27:31.276Z,1.20
2023-01-04T22:30:02.187Z,1.50
2023-01-04T22:32:30.569Z,1.00
2023-01-04T22:34:58.780Z,2.65
2023-01-04T22:37:27.084Z,1.58
2023-01-04T22:39:56.705Z,2.08
2023-01-04T22:42:24.945Z,1.98
2023-01-04T22:44:53.215Z,1.80
2023-01-04T22:47:21.517Z,1.75
2023-01-04T22:49:49.849Z,2.03
2023-01-04T22:52:18.236Z,1.40
2023-01-04T22:54:48.450Z,2.25
2023-01-04T22:57:18.197Z,1.10
2023-01-04T22:59:46.605Z,1.98
2023-01-04T23:02:15.051Z,1.90
2023-01-04T23:04:43.531Z,1.92
2023-01-04T23:07:12.023Z,3.65
2023-01-04T23:09:40.377Z,1.67
2023-01-04T23:12:08.890Z,0.90
2023-01-04T23:14:38.770Z,1.48
2023-01-04T23:17:07.140Z,1.95
2023-01-04T23:19:36.217Z,3.70
2023-01-04T23:22:04.993Z,1.70
2023-01-04T23:24:34.839Z,1.50
2023-01-04T23:27:03.258Z,2.65
2023-01-04T23:29:31.592Z,6.57
2023-01-04T23:32:01.564Z,1.90
2023-01-04T23:34:30.419Z,2.08
2023-01-04T23:36:58.825Z,3.20
2023-01-04T23:39:27.144Z,7.88
2023-01-04T23:41:55.505Z,2.35
2023-01-04T23:44:25.304Z,1.52
2023-01-04T23:46:55.606Z,5.32
2023-01-04T23:49:26.937Z,8.18
2023-01-04T23:51:55.749Z,9.20
2023-01-04T23:54:25.048Z,7.90
2023-01-04T23:56:54.166Z,2.00
2023-01-04T23:59:23.250Z,3.10
